createdAt,value
2024-03-26T00:00:36.636Z,986.72
2024-03-26T00:01:39.280Z,986.68
2024-03-26T00:02:36.727Z,986.70
2024-03-26T00:03:36.615Z,986.68
2024-03-26T00:04:36.567Z,986.66
2024-03-26T00:05:36.580Z,986.63
2024-03-26T00:06:36.571Z,986.62
2024-03-26T00:07:36.533Z,986.67
2024-03-26T00:08:36.548Z,986.62
2024-03-26T00:09:36.510Z,986.58
2024-03-26T00:10:36.520Z,986.63
2024-03-26T00:11:36.546Z,986.57
2024-03-26T00:12:36.478Z,986.56
2024-03-26T00:13:36.501Z,986.57
2024-03-26T00:14:36.474Z,986.53
2024-03-26T00:15:36.454Z,986.56
2024-03-26T00:16:36.428Z,986.45
2024-03-26T00:17:36.416Z,986.53
2024-03-26T00:18:36.405Z,986.50
2024-03-26T00:19:36.411Z,986.53
2024-03-26T00:20:36.378Z,986.46
2024-03-26T00:21:36.370Z,986.47
2024-03-26T00:22:36.367Z,986.42
2024-03-26T00:23:36.351Z,986.40
2024-03-26T00:24:36.359Z,986.46
2024-03-26T00:25:36.349Z,986.44
2024-03-26T00:26:36.314Z,986.43
2024-03-26T00:27:36.305Z,986.38
2024-03-26T00:28:36.298Z,986.35
2024-03-26T00:29:36.282Z,986.33
2024-03-26T00:30:36.290Z,986.32
2024-03-26T00:31:36.280Z,986.31
2024-03-26T00:32:36.243Z,986.26
2024-03-26T00:33:36.243Z,986.21
2024-03-26T00:34:36.216Z,986.25
2024-03-26T00:35:36.216Z,986.24
2024-03-26T00:36:36.212Z,986.19
2024-03-26T00:37:36.190Z,986.18
2024-03-26T00:38:36.183Z,986.20
2024-03-26T00:39:36.174Z,986.22
2024-03-26T00:40:36.155Z,986.22
2024-03-26T00:41:36.153Z,986.20
2024-03-26T00:42:36.147Z,986.19
2024-03-26T00:43:36.135Z,986.15
2024-03-26T00:44:36.127Z,986.15
2024-03-26T00:45:36.091Z,986.12
2024-03-26T00:46:36.078Z,986.12
2024-03-26T00:47:36.071Z,986.15
2024-03-26T00:48:36.064Z,986.15
2024-03-26T00:49:36.064Z,986.15
2024-03-26T00:50:36.035Z,986.05
2024-03-26T00:51:36.027Z,986.04
2024-03-26T00:52:36.011Z,986.03
2024-03-26T00:53:36.002Z,985.98
2024-03-26T00:54:36.003Z,986.00
2024-03-26T00:55:35.988Z,986.01
2024-03-26T00:56:35.960Z,985.97
2024-03-26T00:57:35.954Z,985.97
2024-03-26T00:58:35.947Z,985.96
2024-03-26T00:59:35.943Z,985.95
2024-03-26T01:00:35.922Z,985.92
2024-03-26T01:01:35.909Z,985.93
2024-03-26T01:02:35.897Z,985.87
2024-03-26T01:03:35.889Z,985.88
2024-03-26T01:04:35.905Z,985.89
2024-03-26T01:05:35.868Z,985.85
2024-03-26T01:06:35.849Z,985.83
2024-03-26T01:07:35.844Z,985.82
2024-03-26T01:08:35.821Z,985.81
2024-03-26T01:09:35.852Z,985.74
2024-03-26T01:10:35.803Z,985.81
2024-03-26T01:11:35.806Z,985.74
2024-03-26T01:12:35.792Z,985.78
2024-03-26T01:13:35.770Z,985.73
2024-03-26T01:14:35.756Z,985.73
2024-03-26T01:15:35.746Z,985.72
2024-03-26T01:16:35.750Z,985.68
2024-03-26T01:17:35.726Z,985.72
2024-03-26T01:18:35.712Z,985.65
2024-03-26T01:19:35.700Z,985.65
2024-03-26T01:20:35.709Z,985.59
2024-03-26T01:21:35.702Z,985.65
2024-03-26T01:22:35.681Z,985.59
2024-03-26T01:23:35.666Z,985.61
2024-03-26T01:24:35.648Z,985.59
2024-03-26T01:25:35.638Z,985.56
2024-03-26T01:26:35.618Z,985.53
2024-03-26T01:27:35.624Z,985.49
2024-03-26T01:28:35.627Z,985.53
2024-03-26T01:29:35.578Z,985.46
2024-03-26T01:30:35.575Z,985.49
2024-03-26T01:31:35.563Z,985.42
2024-03-26T01:32:35.567Z,985.44
2024-03-26T01:33:35.557Z,985.37
2024-03-26T01:34:35.527Z,985.41
2024-03-26T01:35:35.520Z,985.39
2024-03-26T01:36:35.501Z,985.41
2024-03-26T01:37:35.504Z,985.39
2024-03-26T01:38:35.502Z,985.35
2024-03-26T01:39:56.465Z,985.39
2024-03-26T01:40:36.155Z,985.35
2024-03-26T01:41:35.434Z,985.33
2024-03-26T01:42:35.428Z,985.34
2024-03-26T01:43:35.431Z,985.34
2024-03-26T01:44:35.422Z,985.32
2024-03-26T01:45:35.397Z,985.34
2024-03-26T01:46:42.034Z,985.34
2024-03-26T01:47:35.376Z,985.33
2024-03-26T01:48:35.355Z,985.34
2024-03-26T01:49:35.376Z,985.35
2024-03-26T01:50:35.333Z,985.36
2024-03-26T01:51:35.375Z,985.33
2024-03-26T01:52:35.311Z,985.27
2024-03-26T01:53:35.299Z,985.28
2024-03-26T01:54:35.302Z,985.31
2024-03-26T01:55:35.275Z,985.26
2024-03-26T01:56:35.264Z,985.23
2024-03-26T01:57:35.253Z,985.21
2024-03-26T01:58:35.256Z,985.24
2024-03-26T01:59:35.289Z,985.19
2024-03-26T02:00:35.224Z,985.21
2024-03-26T02:01:35.208Z,985.17
2024-03-26T02:02:35.215Z,985.14
2024-03-26T02:03:35.200Z,985.15
2024-03-26T02:04:35.171Z,985.15
2024-03-26T02:05:35.187Z,985.14
2024-03-26T02:06:35.157Z,985.14
2024-03-26T02:07:35.141Z,985.11
2024-03-26T02:08:35.131Z,985.15
2024-03-26T02:09:35.112Z,985.10
2024-03-26T02:10:35.152Z,985.11
2024-03-26T02:11:35.099Z,985.10
2024-03-26T02:12:35.075Z,985.05
2024-03-26T02:13:35.079Z,985.05
2024-03-26T02:14:35.064Z,985.00
2024-03-26T02:15:35.046Z,985.03
2024-03-26T02:16:35.050Z,984.96
2024-03-26T02:17:35.021Z,984.98
2024-03-26T02:18:35.014Z,984.90
2024-03-26T02:19:34.998Z,984.96
2024-03-26T02:20:35.007Z,984.90
2024-03-26T02:21:35.013Z,984.86
2024-03-26T02:22:34.976Z,984.84
2024-03-26T02:23:34.973Z,984.86
2024-03-26T02:24:34.962Z,984.83
2024-03-26T02:25:34.939Z,984.79
2024-03-26T02:26:34.916Z,984.82
2024-03-26T02:27:34.934Z,984.79
2024-03-26T02:28:34.891Z,984.81
2024-03-26T02:29:34.883Z,984.78
2024-03-26T02:30:34.875Z,984.72
2024-03-26T02:31:34.861Z,984.71
2024-03-26T02:32:34.864Z,984.71
2024-03-26T02:33:34.861Z,984.65
2024-03-26T02:34:34.825Z,984.70
2024-03-26T02:35:34.814Z,984.64
2024-03-26T02:36:34.809Z,984.69
2024-03-26T02:37:34.786Z,984.63
2024-03-26T02:38:45.474Z,984.62
2024-03-26T02:39:34.768Z,984.60
2024-03-26T02:40:34.758Z,984.52
2024-03-26T02:41:34.748Z,984.63
2024-03-26T02:42:34.732Z,984.51
2024-03-26T02:43:34.720Z,984.55
2024-03-26T02:44:34.726Z,984.49
2024-03-26T02:45:34.697Z,984.44
2024-03-26T02:46:34.689Z,984.48
2024-03-26T02:47:34.693Z,984.40
2024-03-26T02:48:34.658Z,984.49
2024-03-26T02:49:34.678Z,984.43
2024-03-26T02:50:34.677Z,984.44
2024-03-26T02:51:34.644Z,984.41
2024-03-26T02:52:34.619Z,984.38
2024-03-26T02:53:34.603Z,984.38
2024-03-26T02:54:34.595Z,984.36
2024-03-26T02:55:34.588Z,984.36
2024-03-26T02:56:34.607Z,984.36
2024-03-26T02:57:34.561Z,984.32
2024-03-26T02:58:34.547Z,984.36
2024-03-26T02:59:34.542Z,984.30
2024-03-26T03:00:34.543Z,984.31
2024-03-26T03:01:34.533Z,984.26
2024-03-26T03:02:34.514Z,984.27
2024-03-26T03:03:34.482Z,984.18
2024-03-26T03:04:34.472Z,984.16
2024-03-26T03:05:34.462Z,984.14
2024-03-26T03:06:34.448Z,984.14
2024-03-26T03:07:34.460Z,984.13
2024-03-26T03:08:34.429Z,984.14
2024-03-26T03:09:34.414Z,984.09
2024-03-26T03:10:34.407Z,984.05
2024-03-26T03:11:34.395Z,984.04
2024-03-26T03:12:34.400Z,984.01
2024-03-26T03:13:34.371Z,984.03
2024-03-26T03:14:34.360Z,983.97
2024-03-26T03:15:34.350Z,983.96
2024-03-26T03:16:34.337Z,983.94
2024-03-26T03:17:34.357Z,983.93
2024-03-26T03:18:34.318Z,983.94
2024-03-26T03:19:34.309Z,983.93
2024-03-26T03:20:34.288Z,983.94
2024-03-26T03:21:34.276Z,983.96
2024-03-26T03:22:34.279Z,983.90
2024-03-26T03:23:34.283Z,983.87
2024-03-26T03:24:34.239Z,983.87
2024-03-26T03:25:34.257Z,983.86
2024-03-26T03:26:34.217Z,983.85
2024-03-26T03:27:34.204Z,983.83
2024-03-26T03:28:34.233Z,983.80
2024-03-26T03:29:34.183Z,983.80
2024-03-26T03:30:34.170Z,983.79
2024-03-26T03:31:34.164Z,983.70
2024-03-26T03:32:34.151Z,983.71
2024-03-26T03:33:34.159Z,983.71
2024-03-26T03:34:34.125Z,983.73
2024-03-26T03:35:34.114Z,983.69
2024-03-26T03:36:34.102Z,983.62
2024-03-26T03:37:34.096Z,983.61
2024-03-26T03:38:34.114Z,983.57
2024-03-26T03:39:34.074Z,983.53
2024-03-26T03:40:34.063Z,983.49
2024-03-26T03:41:34.064Z,983.45
2024-03-26T03:42:34.040Z,983.51
2024-03-26T03:43:34.020Z,983.45
2024-03-26T03:44:34.031Z,983.48
2024-03-26T03:45:34.019Z,983.39
2024-03-26T03:46:33.987Z,983.41
2024-03-26T03:47:33.979Z,983.44
2024-03-26T03:48:33.965Z,983.40
2024-03-26T03:49:33.954Z,983.38
2024-03-26T03:50:33.963Z,983.35
2024-03-26T03:51:33.927Z,983.39
2024-03-26T03:52:33.916Z,983.34
2024-03-26T03:53:33.910Z,983.35
2024-03-26T03:54:33.897Z,983.32
2024-03-26T03:55:33.910Z,983.35
2024-03-26T03:56:33.872Z,983.34
2024-03-26T03:57:33.858Z,983.31
2024-03-26T03:58:33.861Z,983.34
2024-03-26T03:59:33.867Z,983.29
2024-03-26T04:00:33.843Z,983.28
2024-03-26T04:01:33.823Z,983.25
2024-03-26T04:02:33.812Z,983.20
2024-03-26T04:03:33.783Z,983.20
2024-03-26T04:04:33.774Z,983.19
2024-03-26T04:05:33.779Z,983.18
2024-03-26T04:06:33.753Z,983.19
2024-03-26T04:07:33.737Z,983.17
2024-03-26T04:08:33.730Z,983.14
2024-03-26T04:09:33.722Z,983.18
2024-03-26T04:10:33.720Z,983.16
2024-03-26T04:11:33.723Z,983.11
2024-03-26T04:12:33.691Z,983.12
2024-03-26T04:13:33.691Z,983.10
2024-03-26T04:14:33.656Z,983.10
2024-03-26T04:15:33.647Z,983.03
2024-03-26T04:16:33.655Z,983.01
2024-03-26T04:17:33.625Z,982.95
2024-03-26T04:18:36.352Z,982.91
2024-03-26T04:19:33.606Z,982.93
2024-03-26T04:20:33.593Z,982.92
2024-03-26T04:21:33.595Z,982.94
2024-03-26T04:23:01.315Z,982.91
2024-03-26T04:23:33.566Z,982.86
2024-03-26T04:24:33.556Z,982.78
2024-03-26T04:25:54.535Z,982.86
2024-03-26T04:26:33.553Z,982.82
2024-03-26T04:27:33.507Z,982.84
2024-03-26T04:28:33.514Z,982.77
2024-03-26T04:29:33.537Z,982.80
2024-03-26T04:30:33.500Z,982.76
2024-03-26T04:31:33.463Z,982.74
2024-03-26T04:32:33.472Z,982.77
2024-03-26T04:33:33.462Z,982.72
2024-03-26T04:34:33.429Z,982.77
2024-03-26T04:35:33.425Z,982.73
2024-03-26T04:36:33.405Z,982.75
2024-03-26T04:37:33.392Z,982.75
2024-03-26T04:38:33.401Z,982.71
2024-03-26T04:39:33.388Z,982.68
2024-03-26T04:40:33.357Z,982.71
2024-03-26T04:41:33.342Z,982.66
2024-03-26T04:42:33.335Z,982.68
2024-03-26T04:43:33.325Z,982.69
2024-03-26T04:44:33.352Z,982.69
2024-03-26T04:46:12.490Z,982.62
2024-03-26T04:46:33.287Z,982.63
2024-03-26T04:47:33.294Z,982.60
2024-03-26T04:48:33.277Z,982.64
2024-03-26T04:49:33.264Z,982.55
2024-03-26T04:50:33.263Z,982.64
2024-03-26T04:51:33.229Z,982.56
2024-03-26T04:52:33.214Z,982.54
2024-03-26T04:53:33.204Z,982.54
2024-03-26T04:54:33.194Z,982.56
2024-03-26T04:55:33.202Z,982.53
2024-03-26T04:56:33.186Z,982.57
2024-03-26T04:57:33.157Z,982.53
2024-03-26T04:58:33.150Z,982.55
2024-03-26T04:59:33.145Z,982.54
2024-03-26T05:00:33.128Z,982.56
2024-03-26T05:01:33.128Z,982.51
2024-03-26T05:02:33.099Z,982.51
2024-03-26T05:03:35.809Z,982.48
2024-03-26T05:04:33.083Z,982.51
2024-03-26T05:05:33.070Z,982.47
2024-03-26T05:06:33.096Z,982.48
2024-03-26T05:07:33.082Z,982.41
2024-03-26T05:08:33.035Z,982.50
2024-03-26T05:09:33.025Z,982.52
2024-03-26T05:10:33.010Z,982.52
2024-03-26T05:11:33.005Z,982.49
2024-03-26T05:12:33.008Z,982.47
2024-03-26T05:13:33.001Z,982.51
2024-03-26T05:14:32.956Z,982.53
2024-03-26T05:15:32.950Z,982.51
2024-03-26T05:16:32.942Z,982.50
2024-03-26T05:17:32.942Z,982.46
2024-03-26T05:18:32.947Z,982.44
2024-03-26T05:19:32.908Z,982.40
2024-03-26T05:20:32.909Z,982.42
2024-03-26T05:21:32.881Z,982.38
2024-03-26T05:22:32.866Z,982.33
2024-03-26T05:23:32.884Z,982.29
2024-03-26T05:24:32.847Z,982.34
2024-03-26T05:25:32.835Z,982.33
2024-03-26T05:26:32.826Z,982.34
2024-03-26T05:27:32.815Z,982.28
2024-03-26T05:28:32.837Z,982.34
2024-03-26T05:29:32.781Z,982.26
2024-03-26T05:30:32.773Z,982.23
2024-03-26T05:31:32.769Z,982.27
2024-03-26T05:32:32.777Z,982.25
2024-03-26T05:33:32.758Z,982.28
2024-03-26T05:34:32.744Z,982.23
2024-03-26T05:35:32.732Z,982.23
2024-03-26T05:36:32.703Z,982.26
2024-03-26T05:37:32.690Z,982.27
2024-03-26T05:38:32.684Z,982.28
2024-03-26T05:39:32.724Z,982.25
2024-03-26T05:40:32.669Z,982.27
2024-03-26T05:41:32.659Z,982.29
2024-03-26T05:42:32.640Z,982.23
2024-03-26T05:43:32.626Z,982.25
2024-03-26T05:44:32.638Z,982.27
2024-03-26T05:45:32.609Z,982.27
2024-03-26T05:46:32.611Z,982.23
2024-03-26T05:47:32.576Z,982.26
2024-03-26T05:48:32.562Z,982.21
2024-03-26T05:49:35.064Z,982.23
2024-03-26T05:50:32.568Z,982.30
2024-03-26T05:51:32.538Z,982.27
2024-03-26T05:52:32.535Z,982.23
2024-03-26T05:53:32.515Z,982.24
2024-03-26T05:54:32.500Z,982.18
2024-03-26T05:55:32.507Z,982.19
2024-03-26T05:56:32.502Z,982.17
2024-03-26T05:57:32.482Z,982.16
2024-03-26T05:58:32.467Z,982.14
2024-03-26T05:59:32.436Z,982.16
2024-03-26T06:00:32.467Z,982.20
2024-03-26T06:01:32.427Z,982.24
2024-03-26T06:02:40.089Z,982.21
2024-03-26T06:03:32.447Z,982.23
2024-03-26T06:04:32.395Z,982.21
2024-03-26T06:05:32.370Z,982.19
2024-03-26T06:06:32.364Z,982.19
2024-03-26T06:07:32.364Z,982.16
2024-03-26T06:08:32.335Z,982.16
2024-03-26T06:09:32.314Z,982.13
2024-03-26T06:10:32.326Z,982.18
2024-03-26T06:11:32.302Z,982.13
2024-03-26T06:12:32.300Z,982.14
2024-03-26T06:13:32.287Z,982.09
2024-03-26T06:14:32.264Z,982.09
2024-03-26T06:15:32.249Z,982.04
2024-03-26T06:16:32.239Z,982.05
2024-03-26T06:17:32.225Z,982.01
2024-03-26T06:18:32.224Z,982.00
2024-03-26T06:19:32.202Z,981.99
2024-03-26T06:20:32.186Z,982.08
2024-03-26T06:21:32.174Z,982.09
2024-03-26T06:22:32.169Z,982.02
2024-03-26T06:23:32.174Z,982.06
2024-03-26T06:24:32.159Z,982.07
2024-03-26T06:25:32.134Z,982.05
2024-03-26T06:26:32.116Z,981.95
2024-03-26T06:27:32.111Z,981.98
2024-03-26T06:28:32.085Z,981.90
2024-03-26T06:29:32.113Z,981.93
2024-03-26T06:30:32.077Z,981.94
2024-03-26T06:31:32.058Z,982.01
2024-03-26T06:32:32.057Z,981.98
2024-03-26T06:33:33.158Z,981.97
2024-03-26T06:34:32.044Z,982.02
2024-03-26T06:35:32.018Z,982.01
2024-03-26T06:36:32.011Z,981.97
2024-03-26T06:37:31.992Z,981.99
2024-03-26T06:38:31.981Z,982.02
2024-03-26T06:39:31.988Z,982.00
2024-03-26T06:40:31.959Z,982.02
2024-03-26T06:41:31.943Z,981.97
2024-03-26T06:42:31.954Z,981.93
2024-03-26T06:43:31.922Z,981.97
2024-03-26T06:44:31.912Z,981.96
2024-03-26T06:45:31.923Z,981.98
2024-03-26T06:46:31.883Z,981.97
2024-03-26T06:47:31.892Z,981.99
2024-03-26T06:48:31.867Z,982.02
2024-03-26T06:49:31.857Z,982.04
2024-03-26T06:50:31.906Z,982.03
2024-03-26T06:51:31.841Z,982.07
2024-03-26T06:52:31.836Z,982.04
2024-03-26T06:53:31.804Z,982.01
2024-03-26T06:54:31.796Z,982.04
2024-03-26T06:55:31.785Z,982.03
2024-03-26T06:56:31.772Z,982.01
2024-03-26T06:57:31.779Z,982.01
2024-03-26T06:58:31.754Z,982.02
2024-03-26T06:59:31.848Z,982.02
2024-03-26T07:00:31.779Z,981.97
2024-03-26T07:01:31.799Z,981.99
2024-03-26T07:02:31.715Z,982.01
2024-03-26T07:03:31.744Z,982.00
2024-03-26T07:04:31.759Z,982.00
2024-03-26T07:05:31.731Z,982.02
2024-03-26T07:06:31.663Z,982.01
2024-03-26T07:07:32.955Z,982.03
2024-03-26T07:08:31.643Z,982.02
2024-03-26T07:09:31.644Z,982.03
2024-03-26T07:10:31.600Z,982.05
2024-03-26T07:11:31.697Z,982.02
2024-03-26T07:12:31.637Z,982.05
2024-03-26T07:13:31.571Z,982.00
2024-03-26T07:14:31.571Z,981.97
2024-03-26T07:15:31.546Z,981.97
2024-03-26T07:16:31.533Z,981.99
2024-03-26T07:17:31.564Z,981.95
2024-03-26T07:18:31.516Z,981.92
2024-03-26T07:19:31.500Z,981.97
2024-03-26T07:20:31.510Z,981.97
2024-03-26T07:21:31.473Z,981.99
2024-03-26T07:22:31.464Z,981.96
2024-03-26T07:23:31.461Z,981.98
2024-03-26T07:24:31.473Z,981.89
2024-03-26T07:25:31.436Z,981.86
2024-03-26T07:26:31.415Z,981.87
2024-03-26T07:27:31.463Z,981.85
2024-03-26T07:28:31.410Z,981.84
2024-03-26T07:29:31.415Z,981.85
2024-03-26T07:30:31.406Z,981.81
2024-03-26T07:31:31.375Z,981.88
2024-03-26T07:32:31.346Z,981.89
2024-03-26T07:33:31.332Z,981.86
2024-03-26T07:34:32.642Z,981.78
2024-03-26T07:35:31.336Z,981.83
2024-03-26T07:36:31.302Z,981.78
2024-03-26T07:37:31.315Z,981.80
2024-03-26T07:38:31.274Z,981.78
2024-03-26T07:39:31.276Z,981.85
2024-03-26T07:40:31.400Z,981.88
2024-03-26T07:41:32.770Z,981.86
2024-03-26T07:42:31.257Z,981.77
2024-03-26T07:43:31.220Z,981.75
2024-03-26T07:44:31.217Z,981.82
2024-03-26T07:45:31.192Z,981.84
2024-03-26T07:46:31.415Z,981.81
2024-03-26T07:47:31.193Z,981.74
2024-03-26T07:48:31.161Z,981.82
2024-03-26T07:49:31.185Z,981.77
2024-03-26T07:50:31.132Z,981.78
2024-03-26T07:51:31.122Z,981.76
2024-03-26T07:52:31.179Z,981.79
2024-03-26T07:53:31.155Z,981.70
2024-03-26T07:54:31.088Z,981.71
2024-03-26T07:55:31.178Z,981.72
2024-03-26T07:56:31.071Z,981.72
2024-03-26T07:57:31.105Z,981.70
2024-03-26T07:58:31.076Z,981.72
2024-03-26T07:59:31.029Z,981.71
2024-03-26T08:00:31.050Z,981.74
2024-03-26T08:01:31.003Z,981.69
2024-03-26T08:02:30.995Z,981.68
2024-03-26T08:03:31.085Z,981.66
2024-03-26T08:04:30.968Z,981.63
2024-03-26T08:05:30.965Z,981.62
2024-03-26T08:06:30.961Z,981.68
2024-03-26T08:07:30.935Z,981.55
2024-03-26T08:08:31.036Z,981.62
2024-03-26T08:09:30.916Z,981.62
2024-03-26T08:10:30.999Z,981.66
2024-03-26T08:11:30.926Z,981.63
2024-03-26T08:12:30.899Z,981.68
2024-03-26T08:13:30.893Z,981.68
2024-03-26T08:14:30.905Z,981.64
2024-03-26T08:15:30.887Z,981.65
2024-03-26T08:16:30.822Z,981.66
2024-03-26T08:17:30.919Z,981.65
2024-03-26T08:18:30.878Z,981.61
2024-03-26T08:19:31.622Z,981.58
2024-03-26T08:20:30.828Z,981.57
2024-03-26T08:21:30.766Z,981.58
2024-03-26T08:22:30.760Z,981.59
2024-03-26T08:23:30.749Z,981.53
2024-03-26T08:24:30.753Z,981.57
2024-03-26T08:25:30.794Z,981.49
2024-03-26T08:26:30.740Z,981.49
2024-03-26T08:27:30.723Z,981.50
2024-03-26T08:28:30.684Z,981.48
2024-03-26T08:29:30.682Z,981.45
2024-03-26T08:30:30.703Z,981.44
2024-03-26T08:31:30.688Z,981.44
2024-03-26T08:32:30.675Z,981.46
2024-03-26T08:33:30.632Z,981.44
2024-03-26T08:34:30.624Z,981.45
2024-03-26T08:35:30.648Z,981.43
2024-03-26T08:36:30.715Z,981.41
2024-03-26T08:37:30.572Z,981.42
2024-03-26T08:38:30.566Z,981.42
2024-03-26T08:39:30.582Z,981.41
2024-03-26T08:40:30.560Z,981.37
2024-03-26T08:41:30.551Z,981.34
2024-03-26T08:42:30.521Z,981.33
2024-03-26T08:43:30.509Z,981.33
2024-03-26T08:44:30.495Z,981.28
2024-03-26T08:45:30.519Z,981.30
2024-03-26T08:46:30.478Z,981.32
2024-03-26T08:47:30.475Z,981.34
2024-03-26T08:48:30.453Z,981.39
2024-03-26T08:49:30.444Z,981.26
2024-03-26T08:50:30.449Z,981.26
2024-03-26T08:51:30.439Z,981.27
2024-03-26T08:52:30.425Z,981.26
2024-03-26T08:53:30.395Z,981.23
2024-03-26T08:54:30.388Z,981.24
2024-03-26T08:55:30.371Z,981.22
2024-03-26T08:56:30.366Z,981.21
2024-03-26T08:57:30.451Z,981.17
2024-03-26T08:58:30.356Z,981.19
2024-03-26T08:59:30.352Z,981.18
2024-03-26T09:00:30.317Z,981.15
2024-03-26T09:01:30.311Z,981.18
2024-03-26T09:02:30.289Z,981.19
2024-03-26T09:03:30.285Z,981.15
2024-03-26T09:04:30.295Z,981.19
2024-03-26T09:05:30.259Z,981.18
2024-03-26T09:06:30.265Z,981.16
2024-03-26T09:07:30.225Z,981.16
2024-03-26T09:08:30.219Z,981.15
2024-03-26T09:09:30.226Z,981.13
2024-03-26T09:10:30.197Z,981.15
2024-03-26T09:11:30.177Z,981.09
2024-03-26T09:12:32.343Z,981.16
2024-03-26T09:13:30.156Z,981.16
2024-03-26T09:14:30.167Z,981.07
2024-03-26T09:15:30.139Z,981.08
2024-03-26T09:16:30.131Z,981.12
2024-03-26T09:17:30.164Z,981.08
2024-03-26T09:18:30.101Z,981.10
2024-03-26T09:19:30.104Z,981.14
2024-03-26T09:20:30.088Z,981.07
2024-03-26T09:21:30.093Z,981.09
2024-03-26T09:22:30.068Z,981.09
2024-03-26T09:23:30.034Z,981.04
2024-03-26T09:24:36.609Z,981.06
2024-03-26T09:25:31.012Z,981.05
2024-03-26T09:26:30.005Z,981.02
2024-03-26T09:27:29.999Z,981.00
2024-03-26T09:28:29.989Z,981.04
2024-03-26T09:29:29.973Z,981.02
2024-03-26T09:30:29.953Z,981.01
2024-03-26T09:31:29.948Z,981.01
2024-03-26T09:32:29.970Z,980.98
2024-03-26T09:33:29.950Z,980.96
2024-03-26T09:34:29.930Z,980.99
2024-03-26T09:35:29.951Z,980.93
2024-03-26T09:36:37.937Z,980.92
2024-03-26T09:37:30.729Z,980.91
2024-03-26T09:38:39.633Z,980.89
2024-03-26T09:39:30.852Z,980.89
2024-03-26T09:40:29.828Z,980.86
2024-03-26T09:41:29.839Z,980.87
2024-03-26T09:42:29.836Z,980.91
2024-03-26T09:43:29.809Z,980.90
2024-03-26T09:44:29.800Z,980.85
2024-03-26T09:45:29.774Z,980.86
2024-03-26T09:46:29.782Z,980.91
2024-03-26T09:47:29.758Z,980.91
2024-03-26T09:48:29.747Z,980.87
2024-03-26T09:49:29.721Z,980.85
2024-03-26T09:50:29.714Z,980.81
2024-03-26T09:51:29.719Z,980.82
2024-03-26T09:52:29.683Z,980.80
2024-03-26T09:53:29.674Z,980.74
2024-03-26T09:54:29.680Z,980.73
2024-03-26T09:55:29.649Z,980.78
2024-03-26T09:56:29.661Z,980.76
2024-03-26T09:57:29.628Z,980.78
2024-03-26T09:58:29.616Z,980.67
2024-03-26T09:59:29.598Z,980.74
2024-03-26T10:00:29.606Z,980.71
2024-03-26T10:01:29.600Z,980.73
2024-03-26T10:02:29.619Z,980.69
2024-03-26T10:03:29.560Z,980.73
2024-03-26T10:04:29.540Z,980.73
2024-03-26T10:05:29.528Z,980.69
2024-03-26T10:06:30.186Z,980.70
2024-03-26T10:07:29.504Z,980.70
2024-03-26T10:08:29.499Z,980.63
2024-03-26T10:09:29.487Z,980.71
2024-03-26T10:10:29.489Z,980.68
2024-03-26T10:11:29.472Z,980.69
2024-03-26T10:12:29.476Z,980.66
2024-03-26T10:13:29.431Z,980.69
2024-03-26T10:14:29.450Z,980.75
2024-03-26T10:15:29.408Z,980.68
2024-03-26T10:16:29.404Z,980.66
2024-03-26T10:17:31.024Z,980.71
2024-03-26T10:18:29.445Z,980.70
2024-03-26T10:19:29.354Z,980.65
2024-03-26T10:20:29.348Z,980.68
2024-03-26T10:21:29.337Z,980.70
2024-03-26T10:22:29.328Z,980.68
2024-03-26T10:23:29.450Z,980.65
2024-03-26T10:24:29.297Z,980.61
2024-03-26T10:25:29.282Z,980.58
2024-03-26T10:26:29.284Z,980.56
2024-03-26T10:27:29.273Z,980.55
2024-03-26T10:28:29.269Z,980.52
2024-03-26T10:29:29.255Z,980.49
2024-03-26T10:30:29.241Z,980.55
2024-03-26T10:31:29.216Z,980.44
2024-03-26T10:32:29.225Z,980.48
2024-03-26T21:30:31.321Z,975.88
2024-03-26T21:31:31.275Z,975.91
2024-03-26T21:32:32.796Z,975.88
2024-03-26T21:33:31.273Z,975.87
2024-03-26T21:34:31.245Z,975.92
2024-03-26T21:35:31.247Z,975.92
2024-03-26T21:36:31.216Z,975.86
2024-03-26T21:37:31.239Z,975.89
2024-03-26T21:38:31.202Z,975.90
2024-03-26T21:39:31.202Z,975.91
2024-03-26T21:40:31.169Z,975.86
2024-03-26T21:41:31.190Z,975.89
2024-03-26T21:42:31.153Z,975.84
2024-03-26T21:43:31.133Z,975.88
2024-03-26T21:44:31.152Z,975.83
2024-03-26T21:45:31.126Z,975.77
2024-03-26T21:46:31.100Z,975.75
2024-03-26T21:47:31.507Z,975.76
2024-03-26T21:48:31.087Z,975.75
2024-03-26T21:49:31.089Z,975.76
2024-03-26T21:50:31.060Z,975.68
2024-03-26T21:51:31.043Z,975.69
2024-03-26T21:52:31.042Z,975.66
2024-03-26T21:53:31.046Z,975.69
2024-03-26T21:54:31.046Z,975.66
2024-03-26T21:55:31.027Z,975.64
2024-03-26T21:56:30.993Z,975.60
2024-03-26T21:57:31.023Z,975.55
2024-03-26T21:58:30.970Z,975.59
2024-03-26T21:59:30.954Z,975.58
2024-03-26T22:00:30.979Z,975.61
2024-03-26T22:01:30.953Z,975.63
2024-03-26T22:02:30.922Z,975.59
2024-03-26T22:03:30.923Z,975.63
2024-03-26T22:04:30.901Z,975.58
2024-03-26T22:05:30.901Z,975.61
2024-03-26T22:06:30.909Z,975.60
2024-03-26T22:07:30.866Z,975.64
2024-03-26T22:08:31.690Z,975.60
2024-03-26T22:09:30.856Z,975.60
2024-03-26T22:10:30.831Z,975.55
2024-03-26T22:11:30.850Z,975.55
2024-03-26T22:12:30.802Z,975.54
2024-03-26T22:13:30.799Z,975.48
2024-03-26T22:14:33.291Z,975.45
2024-03-26T22:15:30.782Z,975.46
2024-03-26T22:16:30.784Z,975.38
2024-03-26T22:17:30.760Z,975.30
2024-03-26T22:18:30.739Z,975.36
2024-03-26T22:19:30.724Z,975.31
2024-03-26T22:20:30.710Z,975.31
2024-03-26T22:21:30.722Z,975.28
2024-03-26T22:22:30.702Z,975.32
2024-03-26T22:23:30.677Z,975.24
2024-03-26T22:24:30.666Z,975.25
2024-03-26T22:25:30.663Z,975.21
2024-03-26T22:26:30.665Z,975.18
2024-03-26T22:27:30.654Z,975.14
2024-03-26T22:28:30.906Z,975.17
2024-03-26T22:29:30.612Z,975.22
2024-03-26T22:30:30.599Z,975.21
2024-03-26T22:31:30.622Z,975.18
2024-03-26T22:32:30.575Z,975.25
2024-03-26T22:33:30.635Z,975.17
2024-03-26T22:34:30.554Z,975.20
2024-03-26T22:35:30.549Z,975.17
2024-03-26T22:36:30.530Z,975.14
2024-03-26T22:37:30.546Z,975.22
2024-03-26T22:38:30.504Z,975.23
2024-03-26T22:39:30.515Z,975.16
2024-03-26T22:40:30.484Z,975.17
2024-03-26T22:41:30.475Z,975.15
2024-03-26T22:42:30.478Z,975.12
2024-03-26T22:43:30.473Z,975.06
2024-03-26T22:44:30.440Z,974.99
2024-03-26T22:45:30.441Z,975.04
2024-03-26T22:46:30.431Z,975.04
2024-03-26T22:47:30.412Z,975.01
2024-03-26T22:48:30.425Z,974.93
2024-03-26T22:49:30.384Z,974.97
2024-03-26T22:50:30.382Z,974.97
2024-03-26T22:51:30.360Z,974.96
2024-03-26T22:52:30.349Z,974.90
2024-03-26T22:53:30.348Z,974.93
2024-03-26T22:54:30.350Z,974.89
2024-03-26T22:55:30.327Z,974.93
2024-03-26T22:56:30.313Z,974.93
2024-03-26T22:57:30.296Z,974.89
2024-03-26T22:58:30.287Z,974.86
2024-03-26T22:59:30.289Z,974.85
2024-03-26T23:00:30.290Z,974.84
2024-03-26T23:01:30.257Z,974.82
2024-03-26T23:02:30.251Z,974.83
2024-03-26T23:03:30.248Z,974.79
2024-03-26T23:04:30.240Z,974.81
2024-03-26T23:05:30.241Z,974.75
2024-03-26T23:06:30.202Z,974.75
2024-03-26T23:07:30.183Z,974.72
2024-03-26T23:08:30.170Z,974.68
2024-03-26T23:09:30.170Z,974.76
2024-03-26T23:10:30.162Z,974.76
2024-03-26T23:11:30.162Z,974.68
2024-03-26T23:12:30.135Z,974.66
2024-03-26T23:13:30.127Z,974.71
2024-03-26T23:14:30.099Z,974.71
2024-03-26T23:15:30.113Z,974.71
2024-03-26T23:16:30.125Z,974.65
2024-03-26T23:17:30.093Z,974.70
2024-03-26T23:18:30.069Z,974.62
2024-03-26T23:19:30.096Z,974.60
2024-03-26T23:20:30.037Z,974.58
2024-03-26T23:21:30.047Z,974.59
2024-03-26T23:22:30.013Z,974.57
2024-03-26T23:23:30.010Z,974.61
2024-03-26T23:24:29.990Z,974.61
2024-03-26T23:25:29.993Z,974.61